Time;durP1;ratioP1;P1;durP2;ratioP2;P2;SDS_P1;SDS_P2;PMS_P1;PMS_P2;Temp;Humidity;BMP_temperature;BMP_pressure;BME280_temperature;BME280_humidity;BME280_pressure;Samples;Min_cycle;Max_cycle;Signal;HPM_P1;HPM_P2
2022/11/21 00:00:58;;;;;;;0.33;0.30;;;;;;;5.51;nan;97339.66;5053854;28;20233;-70
2022/11/21 00:03:25;;;;;;;2.30;0.53;;;;;;;5.55;nan;97340.03;5053208;28;20250;-70
2022/11/21 00:05:51;;;;;;;1.00;0.40;;;;;;;5.59;nan;97328.06;5053286;28;20205;-70
2022/11/21 00:08:20;;;;;;;0.60;0.40;;;;;;;5.66;nan;97327.03;5053548;28;20208;-70
2022/11/21 00:10:47;;;;;;;0.40;0.40;;;;;;;5.60;nan;97319.97;5053464;28;20221;-70
2022/11/21 00:13:19;;;;;;;1.07;0.50;;;;;;;5.55;nan;97330.31;5053113;28;20205;-70
2022/11/21 00:15:46;;;;;;;0.40;0.40;;;;;;;5.61;nan;97318.94;5053469;28;20209;-70
2022/11/21 00:18:13;;;;;;;1.43;0.33;;;;;;;5.59;nan;97318.34;5053444;28;20211;-70
2022/11/21 00:20:40;;;;;;;0.60;0.30;;;;;;;5.54;nan;97320.78;5053375;28;20240;-70
2022/11/21 00:23:07;;;;;;;1.30;0.57;;;;;;;5.57;nan;97306.38;5052853;28;20231;-70
2022/11/21 00:25:33;;;;;;;0.40;0.40;;;;;;;5.58;nan;97310.63;5053108;28;20209;-70
2022/11/21 00:28:00;;;;;;;0.77;0.30;;;;;;;5.68;nan;97303.94;5053319;28;20205;-70
2022/11/21 00:30:26;;;;;;;0.87;0.50;;;;;;;5.63;nan;97301.09;5053269;28;20228;-70
2022/11/21 00:32:52;;;;;;;0.33;0.30;;;;;;;5.58;nan;97300.91;5054669;28;20201;-70
2022/11/21 00:35:19;;;;;;;0.60;0.30;;;;;;;5.57;nan;97301.13;5057095;28;20212;-70
2022/11/21 00:37:47;;;;;;;0.70;0.40;;;;;;;5.53;nan;97297.28;5057330;28;20227;-70
2022/11/21 00:40:14;;;;;;;0.23;0.20;;;;;;;5.52;nan;97301.72;5056883;28;20211;-70
2022/11/21 00:42:40;;;;;;;0.53;0.30;;;;;;;5.44;nan;97291.41;5057165;28;20225;-70
2022/11/21 00:45:06;;;;;;;1.77;0.30;;;;;;;5.44;nan;97295.88;5057185;28;20216;-70
2022/11/21 00:47:33;;;;;;;0.77;0.33;;;;;;;5.39;nan;97282.50;5057173;28;20207;-70
2022/11/21 00:49:59;;;;;;;0.30;0.30;;;;;;;5.35;nan;97283.91;5056712;28;20209;-70
2022/11/21 00:52:26;;;;;;;0.43;0.43;;;;;;;5.37;nan;97273.97;5056691;28;20225;-70
2022/11/21 00:54:52;;;;;;;0.30;0.30;;;;;;;5.26;nan;97277.22;5057012;28;20221;-70
2022/11/21 00:57:20;;;;;;;0.37;0.33;;;;;;;5.12;nan;97271.19;5056924;28;20201;-70
2022/11/21 00:59:47;;;;;;;0.40;0.30;;;;;;;5.07;nan;97257.00;5056667;28;20209;-70
2022/11/21 01:02:13;;;;;;;0.93;0.27;;;;;;;5.06;nan;97261.44;5056763;28;20229;-70
2022/11/21 01:04:40;;;;;;;0.63;0.40;;;;;;;5.02;nan;97259.44;5056558;28;20205;-70
2022/11/21 01:07:06;;;;;;;0.30;0.30;;;;;;;4.98;nan;97264.28;5056499;28;20258;-70
2022/11/21 01:09:32;;;;;;;0.30;0.30;;;;;;;5.03;nan;97271.56;5056370;28;20217;-70
2022/11/21 01:11:59;;;;;;;0.53;0.30;;;;;;;5.03;nan;97268.94;5056246;28;20583;-70
2022/11/21 01:14:25;;;;;;;0.30;0.30;;;;;;;5.05;nan;97274.81;5056370;28;20714;-70
2022/11/21 01:16:51;;;;;;;0.20;0.20;;;;;;;5.05;nan;97275.63;5056376;28;20688;-70
2022/11/21 01:19:18;;;;;;;1.93;0.50;;;;;;;5.09;nan;97266.31;5056545;28;20227;-70
2022/11/21 01:21:44;;;;;;;0.40;0.40;;;;;;;5.11;nan;97258.19;5056330;28;20623;-70
2022/11/21 01:24:12;;;;;;;2.10;0.57;;;;;;;5.04;nan;97262.66;5056372;28;20598;-70
2022/11/21 01:26:38;;;;;;;1.03;0.40;;;;;;;5.06;nan;97265.91;5056443;28;20312;-70
2022/11/21 01:29:05;;;;;;;0.90;0.47;;;;;;;5.08;nan;97264.69;5056370;28;20213;-70
2022/11/21 01:31:32;;;;;;;1.97;0.50;;;;;;;5.01;nan;97260.41;5056321;28;20283;-70
2022/11/21 01:34:00;;;;;;;1.40;0.50;;;;;;;4.99;nan;97258.00;5056268;28;20208;-70
2022/11/21 01:36:29;;;;;;;1.00;0.47;;;;;;;4.91;nan;97262.66;5055894;28;20223;-70
2022/11/21 01:38:58;;;;;;;2.93;0.70;;;;;;;4.87;nan;97266.69;5056642;28;20205;-70
2022/11/21 01:41:30;;;;;;;0.93;0.60;;;;;;;4.91;nan;97258.22;5056102;28;20248;-70
2022/11/21 01:43:56;;;;;;;2.10;0.40;;;;;;;4.82;nan;97251.53;5055614;28;20621;-70
2022/11/21 01:46:23;;;;;;;0.93;0.50;;;;;;;4.76;nan;97254.16;5056074;28;20211;-70
2022/11/21 01:49:02;;;;;;;1.80;0.40;;;;;;;4.77;nan;97253.13;5056051;28;20211;-70
2022/11/21 01:52:09;;;;;;;2.33;0.50;;;;;;;4.77;nan;97253.13;5055850;28;20232;-70
2022/11/21 01:54:51;;;;;;;1.57;0.40;;;;;;;4.67;nan;97245.66;5053954;28;20205;-70
2022/11/21 01:57:32;;;;;;;1.50;0.40;;;;;;;4.64;nan;97246.03;5055563;28;20284;-70
2022/11/21 02:00:05;;;;;;;0.83;0.57;;;;;;;4.66;nan;97245.84;5056289;28;20541;-70
2022/11/21 02:02:36;;;;;;;1.10;0.47;;;;;;;4.63;nan;97244.44;5055736;28;20213;-69
2022/11/21 02:05:05;;;;;;;0.93;0.53;;;;;;;4.63;nan;97225.19;5055741;28;20196;-70
2022/11/21 02:07:38;;;;;;;1.60;0.47;;;;;;;4.65;nan;97228.44;5056215;28;20291;-70
2022/11/21 02:10:06;;;;;;;0.90;0.37;;;;;;;4.66;nan;97235.31;5055586;28;20200;-70
2022/11/21 02:12:39;;;;;;;1.70;0.70;;;;;;;4.62;nan;97234.88;5055585;28;20202;-70
2022/11/21 02:15:06;;;;;;;0.47;0.40;;;;;;;4.57;nan;97239.94;5055539;28;20212;-70
2022/11/21 02:17:33;;;;;;;1.13;0.40;;;;;;;4.60;nan;97236.91;5056042;28;20209;-70
2022/11/21 02:20:03;;;;;;;2.23;0.60;;;;;;;4.56;nan;97233.06;5055429;28;20212;-70
2022/11/21 02:22:45;;;;;;;2.03;0.60;;;;;;;4.56;nan;97235.69;5055049;28;20684;-70
2022/11/21 02:25:18;;;;;;;0.77;0.50;;;;;;;4.60;nan;97234.28;5054263;28;20190;-70
2022/11/21 02:27:46;;;;;;;3.17;0.70;;;;;;;4.58;nan;97235.50;5054965;28;20223;-70
2022/11/21 02:30:13;;;;;;;3.10;0.70;;;;;;;4.60;nan;97234.28;5055230;28;20205;-70
2022/11/21 02:32:45;;;;;;;1.27;0.57;;;;;;;4.58;nan;97231.06;5054895;28;20198;-70
2022/11/21 02:35:12;;;;;;;1.33;0.40;;;;;;;4.63;nan;97233.91;5055227;28;20190;-70
2022/11/21 02:37:38;;;;;;;0.63;0.40;;;;;;;4.65;nan;97231.06;5055085;28;20201;-70
2022/11/21 02:40:10;;;;;;;0.60;0.33;;;;;;;4.56;nan;97225.16;5054996;28;20295;-70
2022/11/21 02:42:51;;;;;;;0.40;0.40;;;;;;;4.58;nan;97225.81;5054644;28;20217;-70
2022/11/21 02:45:26;;;;;;;1.20;0.50;;;;;;;4.54;nan;97231.66;5054843;28;20559;-70
2022/11/21 02:47:55;;;;;;;0.50;0.40;;;;;;;4.46;nan;97229.19;5054974;28;20200;-70
2022/11/21 02:50:30;;;;;;;0.60;0.50;;;;;;;4.44;nan;97228.59;5054785;28;20201;-70
2022/11/21 02:52:57;;;;;;;0.50;0.30;;;;;;;4.46;nan;97216.88;5054754;28;20200;-70
2022/11/21 02:55:25;;;;;;;0.30;0.30;;;;;;;4.49;nan;97216.47;5053959;28;20209;-70
2022/11/21 02:57:52;;;;;;;0.87;0.40;;;;;;;4.45;nan;97209.16;5054418;28;20289;-70
2022/11/21 03:00:19;;;;;;;0.60;0.30;;;;;;;4.45;nan;97203.91;5054319;28;20222;-70
2022/11/21 03:02:45;;;;;;;0.60;0.40;;;;;;;4.42;nan;97199.84;5054259;28;20588;-70
2022/11/21 03:05:15;;;;;;;0.60;0.40;;;;;;;4.46;nan;97200.25;5054589;28;20208;-70
2022/11/21 03:07:42;;;;;;;1.50;0.50;;;;;;;4.43;nan;97198.06;5054518;28;20205;-70
2022/11/21 03:10:09;;;;;;;2.23;0.60;;;;;;;4.36;nan;97199.84;5054098;28;20209;-70
2022/11/21 03:12:36;;;;;;;1.23;0.30;;;;;;;4.35;nan;97192.97;5053991;28;20212;-70
2022/11/21 03:15:04;;;;;;;0.73;0.37;;;;;;;4.35;nan;97192.97;5054099;28;20209;-70
2022/11/21 03:17:31;;;;;;;0.73;0.30;;;;;;;4.31;nan;97191.75;5054316;28;20232;-70
2022/11/21 03:19:57;;;;;;;0.53;0.40;;;;;;;4.32;nan;97186.28;5054288;28;20205;-70
2022/11/21 03:22:24;;;;;;;0.20;0.20;;;;;;;4.37;nan;97180.41;5053701;28;20720;-70
2022/11/21 03:24:50;;;;;;;1.00;0.30;;;;;;;4.39;nan;97178.41;5054175;28;20231;-70
2022/11/21 03:27:17;;;;;;;2.60;0.40;;;;;;;4.44;nan;97183.88;5054056;28;20292;-70
2022/11/21 03:29:43;;;;;;;0.63;0.40;;;;;;;4.55;nan;97183.25;5053682;28;20320;-70
2022/11/21 03:32:10;;;;;;;0.20;0.20;;;;;;;4.54;nan;97187.72;5053921;28;20225;-70
2022/11/21 03:34:36;;;;;;;0.63;0.30;;;;;;;4.58;nan;97194.22;5053485;28;20202;-70
2022/11/21 03:37:03;;;;;;;0.30;0.27;;;;;;;4.58;nan;97194.22;5053544;28;20205;-70
2022/11/21 03:39:30;;;;;;;0.20;0.20;;;;;;;4.59;nan;97195.81;5053548;28;20211;-71
2022/11/21 03:41:56;;;;;;;0.20;0.20;;;;;;;4.58;nan;97190.75;5054550;28;20231;-70
2022/11/21 03:44:22;;;;;;;0.20;0.20;;;;;;;4.60;nan;97189.53;5053491;28;20221;-71
2022/11/21 03:46:49;;;;;;;0.40;0.20;;;;;;;4.67;nan;97192.19;5053836;28;20207;-71
2022/11/21 03:49:16;;;;;;;1.00;0.30;;;;;;;4.69;nan;97195.41;5053830;28;20292;-70
2022/11/21 03:51:44;;;;;;;0.30;0.30;;;;;;;4.69;nan;97190.97;5053707;28;20225;-70
2022/11/21 03:54:10;;;;;;;0.70;0.30;;;;;;;4.72;nan;97184.47;5053445;28;20205;-70
2022/11/21 03:56:38;;;;;;;1.23;0.30;;;;;;;4.67;nan;97189.53;5053632;28;20207;-70
2022/11/21 03:59:05;;;;;;;0.73;0.33;;;;;;;4.73;nan;97196.63;5053351;28;20668;-70
2022/11/21 04:01:32;;;;;;;1.50;0.40;;;;;;;4.73;nan;97191.34;5053151;28;20704;-70
2022/11/21 04:03:58;;;;;;;0.40;0.30;;;;;;;4.70;nan;97189.16;5053341;28;20225;-71
2022/11/21 04:06:25;;;;;;;0.77;0.40;;;;;;;4.74;nan;97198.25;5053252;28;20586;-70
2022/11/21 04:08:52;;;;;;;0.33;0.33;;;;;;;4.75;nan;97189.34;5053523;28;20211;-71
2022/11/21 04:11:20;;;;;;;0.73;0.30;;;;;;;4.76;nan;97189.16;5053393;28;20232;-70
2022/11/21 04:13:47;;;;;;;0.30;0.30;;;;;;;4.77;nan;97195.22;5053904;28;20208;-71
2022/11/21 04:16:13;;;;;;;0.37;0.33;;;;;;;4.73;nan;97186.91;5053342;28;20209;-70
2022/11/21 04:18:39;;;;;;;1.27;0.30;;;;;;;4.80;nan;97198.22;5053191;28;20208;-70
2022/11/21 04:21:07;;;;;;;0.30;0.30;;;;;;;4.76;nan;97183.06;5053180;28;20229;-70
2022/11/21 04:23:34;;;;;;;0.70;0.37;;;;;;;4.79;nan;97190.56;5052913;28;20221;-70
2022/11/21 04:26:01;;;;;;;0.53;0.30;;;;;;;4.81;nan;97183.25;5053168;28;20205;-70
2022/11/21 04:28:27;;;;;;;0.50;0.50;;;;;;;4.83;nan;97176.78;5053266;28;20208;-70
2022/11/21 04:30:54;;;;;;;0.30;0.30;;;;;;;4.86;nan;97186.91;5052915;28;20229;-70
2022/11/21 04:33:20;;;;;;;0.80;0.47;;;;;;;4.85;nan;97184.47;5053121;28;20209;-71
2022/11/21 04:35:47;;;;;;;0.63;0.40;;;;;;;4.85;nan;97189.75;5052890;28;20205;-71
2022/11/21 04:38:14;;;;;;;1.17;0.40;;;;;;;4.87;nan;97185.06;5053501;28;20201;-71
2022/11/21 04:40:42;;;;;;;0.80;0.30;;;;;;;4.82;nan;97177.78;5052788;28;20225;-70
2022/11/21 04:43:09;;;;;;;1.13;0.40;;;;;;;4.93;nan;97181.63;5052986;28;20221;-70
2022/11/21 04:45:35;;;;;;;0.30;0.30;;;;;;;4.87;nan;97185.88;5052812;28;20208;-71
2022/11/21 04:48:01;;;;;;;1.13;0.50;;;;;;;4.93;nan;97189.53;5052934;28;20201;-70
2022/11/21 04:50:28;;;;;;;0.40;0.23;;;;;;;4.93;nan;97181.63;5052955;28;20231;-70
2022/11/21 04:52:56;;;;;;;1.60;0.40;;;;;;;4.97;nan;97186.28;5052581;28;20262;-70
2022/11/21 04:55:27;;;;;;;1.93;0.50;;;;;;;4.98;nan;97181.84;5052986;28;20228;-71
2022/11/21 04:57:53;;;;;;;0.97;0.40;;;;;;;5.04;nan;97175.72;5052735;28;20196;-70
2022/11/21 05:00:20;;;;;;;1.10;0.50;;;;;;;5.00;nan;97179.78;5052534;28;20220;-70
2022/11/21 05:02:46;;;;;;;0.97;0.40;;;;;;;5.00;nan;97185.06;5052695;28;20221;-70
2022/11/21 05:05:13;;;;;;;2.40;0.60;;;;;;;5.05;nan;97177.34;5052832;28;20201;-71
2022/11/21 05:07:39;;;;;;;0.60;0.40;;;;;;;5.00;nan;97177.97;5052544;28;20212;-71
2022/11/21 05:10:06;;;;;;;0.43;0.40;;;;;;;4.97;nan;97178.38;5052459;28;20231;-71
2022/11/21 05:15:17;;;;;;;1.50;0.40;;;;;;;5.05;nan;97177.34;5052505;28;20173;-70
2022/11/21 05:17:43;;;;;;;0.40;0.40;;;;;;;5.08;nan;97172.50;5052741;28;20227;-70
2022/11/21 05:20:10;;;;;;;0.47;0.40;;;;;;;5.08;nan;97174.31;5056063;28;20205;-70
2022/11/21 05:22:36;;;;;;;3.83;1.00;;;;;;;5.08;nan;97179.56;5055814;28;20694;-70
2022/11/21 05:25:03;;;;;;;0.93;0.50;;;;;;;5.03;nan;97177.56;5055636;28;20704;-70
2022/11/21 05:27:30;;;;;;;2.00;0.60;;;;;;;5.04;nan;97183.63;5056027;28;20201;-70
2022/11/21 05:29:56;;;;;;;0.90;0.60;;;;;;;5.02;nan;97188.31;5055798;28;20688;-70
2022/11/21 05:32:23;;;;;;;1.10;0.60;;;;;;;4.98;nan;97184.47;5055838;28;20730;-70
2022/11/21 05:34:49;;;;;;;0.70;0.50;;;;;;;4.92;nan;97185.25;5056094;28;20292;-70
2022/11/21 05:37:16;;;;;;;1.13;0.77;;;;;;;4.83;nan;97187.31;5055963;28;20205;-71
2022/11/21 05:39:42;;;;;;;2.13;0.60;;;;;;;4.81;nan;97191.97;5055677;28;20572;-71
2022/11/21 05:42:08;;;;;;;1.03;0.60;;;;;;;4.80;nan;97195.59;5055819;28;20231;-71
2022/11/21 05:44:34;;;;;;;2.23;0.97;;;;;;;4.86;nan;97197.44;5055522;28;20228;-71
2022/11/21 05:47:00;;;;;;;2.03;1.03;;;;;;;4.88;nan;97199.88;5055603;28;20201;-70
2022/11/21 05:49:27;;;;;;;2.13;0.70;;;;;;;4.87;nan;97198.22;5055326;28;20215;-70
2022/11/21 05:51:53;;;;;;;2.60;0.63;;;;;;;4.87;nan;97198.22;5055213;28;20605;-71
2022/11/21 05:54:19;;;;;;;1.00;0.60;;;;;;;4.86;nan;97212.41;5055516;28;20201;-71
2022/11/21 05:56:46;;;;;;;2.53;0.67;;;;;;;4.85;nan;97208.16;5055550;28;20216;-71
2022/11/21 05:59:12;;;;;;;1.80;0.70;;;;;;;4.78;nan;97210.81;5055063;28;20209;-71
2022/11/21 06:04:23;;;;;;;1.87;0.70;;;;;;;4.70;nan;97203.09;5054652;28;20283;-71
2022/11/21 06:06:49;;;;;;;1.03;0.70;;;;;;;4.59;nan;97206.34;5054707;28;20209;-71
2022/11/21 06:09:15;;;;;;;0.73;0.60;;;;;;;4.64;nan;97200.47;5054805;28;20208;-71
2022/11/21 06:11:42;;;;;;;1.23;0.90;;;;;;;4.60;nan;97196.63;5055432;28;20229;-71
2022/11/21 06:14:08;;;;;;;2.30;0.80;;;;;;;4.56;nan;97196.22;5054878;28;20204;-71
2022/11/21 06:16:35;;;;;;;1.77;0.80;;;;;;;4.63;nan;97201.50;5054568;28;20204;-71
2022/11/21 06:19:01;;;;;;;2.00;1.00;;;;;;;4.74;nan;97198.25;5055100;28;20201;-71
2022/11/21 06:21:29;;;;;;;2.90;0.70;;;;;;;4.95;nan;97203.28;5054696;28;20221;-71
2022/11/21 06:23:58;;;;;;;1.70;0.90;;;;;;;5.01;nan;97202.47;5054479;28;20220;-70
2022/11/21 06:26:26;;;;;;;3.67;0.83;;;;;;;5.12;nan;97204.50;5053942;28;20683;-70
2022/11/21 06:28:54;;;;;;;1.97;0.90;;;;;;;5.20;nan;97205.06;5054109;28;20208;-70
2022/11/21 06:31:23;;;;;;;1.43;0.70;;;;;;;5.32;nan;97205.25;5053084;28;20314;-70
2022/11/21 06:33:58;;;;;;;2.50;0.80;;;;;;;5.30;nan;97202.03;5054790;28;20197;-71
2022/11/21 06:36:25;;;;;;;1.53;0.90;;;;;;;5.31;nan;97204.47;5054174;28;20200;-71
2022/11/21 06:38:54;;;;;;;2.53;0.80;;;;;;;5.31;nan;97196.56;5054565;28;20202;-71
2022/11/21 06:41:22;;;;;;;3.30;0.87;;;;;;;5.28;nan;97204.03;5054100;28;20704;-71
2022/11/21 06:43:48;;;;;;;2.33;0.90;;;;;;;5.26;nan;97198.19;5054344;28;20225;-71
2022/11/21 06:46:15;;;;;;;1.10;0.60;;;;;;;5.22;nan;97204.88;5054306;28;20205;-71
2022/11/21 06:48:43;;;;;;;1.13;0.70;;;;;;;5.22;nan;97212.78;5053864;28;20220;-71
2022/11/21 06:51:24;;;;;;;4.47;1.20;;;;;;;5.22;nan;97207.50;5053919;28;20224;-71
2022/11/21 06:53:56;;;;;;;5.23;1.50;;;;;;;5.17;nan;97215.22;5053729;28;20237;-71
2022/11/21 06:56:24;;;;;;;4.17;1.13;;;;;;;5.09;nan;97221.53;5053899;28;20227;-71
2022/11/21 06:58:51;;;;;;;1.90;0.90;;;;;;;5.04;nan;97226.59;5054224;28;20205;-71
2022/11/21 07:01:17;;;;;;;6.37;1.70;;;;;;;5.03;nan;97217.09;5054141;28;20233;-70
2022/11/21 07:03:44;;;;;;;4.87;1.53;;;;;;;5.09;nan;97223.34;5054068;28;20243;-70
2022/11/21 07:06:10;;;;;;;5.13;1.40;;;;;;;5.03;nan;97216.25;5054412;28;20212;-70
2022/11/21 07:08:39;;;;;;;2.40;0.90;;;;;;;4.95;nan;97222.56;5053870;28;20212;-70
2022/11/21 07:11:08;;;;;;;3.67;1.33;;;;;;;4.90;nan;97225.00;5053807;28;20233;-71
2022/11/21 07:13:33;;;;;;;7.37;1.60;;;;;;;4.86;nan;97217.69;5053764;28;20208;-71
2022/11/21 07:16:02;;;;;;;3.80;1.27;;;;;;;4.85;nan;97213.44;5053750;28;20209;-70
2022/11/21 07:18:29;;;;;;;4.33;1.33;;;;;;;4.77;nan;97211.81;5053838;28;20209;-71
2022/11/21 07:20:59;;;;;;;3.67;1.50;;;;;;;4.80;nan;97206.13;5053488;28;20229;-71
2022/11/21 07:23:26;;;;;;;1.83;1.30;;;;;;;4.84;nan;97220.50;5053520;28;20220;-71
2022/11/21 07:25:52;;;;;;;2.67;1.30;;;;;;;4.91;nan;97209.97;5053463;28;20568;-71
2022/11/21 07:28:19;;;;;;;3.97;1.30;;;;;;;4.93;nan;97207.97;5053695;28;20201;-71
2022/11/21 07:30:45;;;;;;;2.97;1.00;;;;;;;4.93;nan;97213.25;5052989;28;20229;-71
2022/11/21 07:33:11;;;;;;;4.00;1.10;;;;;;;4.92;nan;97208.97;5053318;28;20263;-71
2022/11/21 07:35:38;;;;;;;1.20;1.10;;;;;;;4.87;nan;97211.41;5053349;28;20209;-71
2022/11/21 07:38:04;;;;;;;2.13;1.20;;;;;;;4.88;nan;97215.69;5054201;28;20292;-71
2022/11/21 07:40:32;;;;;;;1.30;0.83;;;;;;;4.83;nan;97205.75;5053056;28;20565;-71
2022/11/21 07:43:06;;;;;;;2.00;1.07;;;;;;;4.82;nan;97204.13;5052866;28;20665;-71
2022/11/21 07:45:33;;;;;;;2.97;1.20;;;;;;;4.94;nan;97212.22;5053498;28;20210;-71
2022/11/21 07:48:01;;;;;;;4.70;1.33;;;;;;;4.93;nan;97208.75;5053482;28;20201;-71
2022/11/21 07:50:28;;;;;;;5.63;1.30;;;;;;;4.89;nan;97204.13;5052999;28;20229;-71
2022/11/21 07:53:02;;;;;;;2.90;1.23;;;;;;;4.95;nan;97208.56;5053003;28;20205;-71
2022/11/21 07:55:29;;;;;;;1.57;1.13;;;;;;;5.03;nan;97206.53;5053144;28;20190;-71
2022/11/21 07:58:05;;;;;;;2.73;1.20;;;;;;;5.04;nan;97212.59;5052857;28;20240;-71
2022/11/21 08:00:33;;;;;;;2.43;1.10;;;;;;;5.11;nan;97216.84;5052876;28;20232;-71
2022/11/21 08:03:00;;;;;;;1.70;1.00;;;;;;;5.13;nan;97208.75;5052878;28;20209;-71
2022/11/21 08:05:26;;;;;;;3.57;1.20;;;;;;;5.16;nan;97226.78;5052767;28;20225;-71
2022/11/21 08:07:53;;;;;;;2.97;1.20;;;;;;;5.20;nan;97220.88;5052968;28;20211;-71
2022/11/21 08:10:19;;;;;;;2.50;1.20;;;;;;;5.26;nan;97216.63;5052986;28;20569;-71
2022/11/21 08:12:46;;;;;;;1.43;1.00;;;;;;;5.25;nan;97222.91;5053034;28;20201;-71
2022/11/21 08:15:13;;;;;;;2.20;1.30;;;;;;;5.30;nan;97220.47;5052956;28;20224;-71
2022/11/21 08:17:39;;;;;;;2.20;1.33;;;;;;;5.36;nan;97219.66;5052711;28;20659;-71
2022/11/21 08:20:07;;;;;;;4.63;1.80;;;;;;;5.34;nan;97204.03;5053067;28;20211;-71
2022/11/21 08:22:39;;;;;;;2.33;1.43;;;;;;;5.38;nan;97199.19;5052514;28;20217;-71
2022/11/21 08:25:07;;;;;;;2.83;1.30;;;;;;;5.41;nan;97196.94;5052908;28;20209;-71
2022/11/21 08:27:33;;;;;;;2.03;1.17;;;;;;;5.46;nan;97198.94;5053141;28;20215;-71
2022/11/21 08:29:59;;;;;;;4.00;1.40;;;;;;;5.52;nan;97203.38;5052765;28;20206;-71
2022/11/21 08:32:26;;;;;;;3.40;1.30;;;;;;;5.49;nan;97201.16;5052827;28;20325;-71
2022/11/21 08:34:52;;;;;;;1.20;1.00;;;;;;;5.48;nan;97199.56;5052958;28;20207;-71
2022/11/21 08:37:18;;;;;;;3.70;1.33;;;;;;;5.54;nan;97202.16;5052891;28;20292;-71
2022/11/21 08:39:45;;;;;;;2.70;1.23;;;;;;;5.57;nan;97201.72;5053055;28;20209;-71
2022/11/21 08:42:11;;;;;;;1.70;1.10;;;;;;;5.73;nan;97200.47;5052937;28;20312;-71
2022/11/21 08:44:38;;;;;;;5.20;1.27;;;;;;;5.74;nan;97191.56;5052534;28;20227;-71
2022/11/21 08:47:05;;;;;;;5.73;1.30;;;;;;;5.87;nan;97202.88;5053487;28;20205;-71
2022/11/21 08:49:32;;;;;;;3.13;1.03;;;;;;;5.98;nan;97194.28;5052734;28;20213;-71
2022/11/21 08:51:58;;;;;;;2.70;1.30;;;;;;;6.00;nan;97199.34;5052472;28;20228;-71
2022/11/21 08:54:24;;;;;;;3.63;1.30;;;;;;;6.15;nan;97195.41;5054867;28;20203;-71
2022/11/21 08:56:51;;;;;;;5.93;1.20;;;;;;;6.30;nan;97201.22;5057118;28;20205;-71
2022/11/21 08:59:18;;;;;;;3.57;1.23;;;;;;;6.36;nan;97186.34;5056720;28;20216;-71
2022/11/21 09:01:44;;;;;;;5.00;1.20;;;;;;;6.48;nan;97187.28;5054989;28;20229;-71
2022/11/21 09:04:12;;;;;;;2.13;0.97;;;;;;;6.46;nan;97186.69;5052770;28;20221;-71
2022/11/21 09:06:38;;;;;;;3.83;1.10;;;;;;;6.58;nan;97196.34;5047020;28;20206;-71
2022/11/21 09:09:06;;;;;;;6.73;1.27;;;;;;;6.70;nan;97191.97;5035082;28;20217;-71
2022/11/21 09:11:33;;;;;;;5.00;1.10;;;;;;;6.78;nan;97185.66;5036514;28;20229;-71
2022/11/21 09:19:28;;;;;;;3.47;1.10;;;;;;;6.92;nan;97163.38;5036145;28;20581;-71
2022/11/21 09:21:54;;;;;;;4.67;1.10;;;;;;;7.04;nan;97177.47;5036100;28;20250;-71
2022/11/21 09:24:20;;;;;;;4.63;1.30;;;;;;;7.11;nan;97171.09;5035905;28;20217;-71
2022/11/21 09:26:47;;;;;;;3.00;1.10;;;;;;;7.16;nan;97178.38;5036005;28;20575;-71
2022/11/21 09:29:15;;;;;;;3.83;1.10;;;;;;;7.34;nan;97186.31;5036221;28;20208;-71
2022/11/21 09:31:42;;;;;;;4.67;1.10;;;;;;;7.27;nan;97183.75;5035828;28;20688;-70
2022/11/21 09:34:09;;;;;;;2.97;1.23;;;;;;;7.38;nan;97172.44;5036259;28;20209;-71
2022/11/21 09:36:35;;;;;;;4.43;1.23;;;;;;;7.50;nan;97186.53;5036039;28;20209;-70
2022/11/21 09:39:02;;;;;;;3.70;0.90;;;;;;;7.53;nan;97185.28;5035908;28;20209;-70
2022/11/21 09:41:53;;;;;;;5.03;1.37;;;;;;;7.62;nan;97176.03;5035438;28;20708;-70
2022/11/21 09:44:49;;;;;;;3.97;1.30;;;;;;;7.96;nan;97178.06;5036025;28;20310;-71
2022/11/21 09:47:26;;;;;;;5.67;1.20;;;;;;;7.98;nan;97176.81;5035872;28;20198;-71
2022/11/21 09:49:59;;;;;;;4.60;1.10;;;;;;;8.20;nan;97180.59;5035659;28;20205;-71
2022/11/21 09:52:50;;;;;;;7.47;1.67;;;;;;;8.24;nan;97160.56;5050973;28;20229;-71
2022/11/21 09:55:39;;;;;;;6.10;1.30;;;;;;;8.31;nan;97158.66;5035760;28;20186;-71
2022/11/21 09:58:33;;;;;;;2.67;1.07;;;;;;;8.40;nan;97159.13;5035792;28;20190;-71
2022/11/21 10:01:00;;;;;;;3.00;1.10;;;;;;;8.40;nan;97153.81;5035286;28;20716;-71
2022/11/21 10:03:31;;;;;;;4.37;1.10;;;;;;;8.37;nan;97151.66;5035063;28;20256;-71
2022/11/21 10:06:11;;;;;;;2.30;0.90;;;;;;;8.43;nan;97140.97;5035091;28;20214;-71
2022/11/21 10:08:44;;;;;;;4.83;1.30;;;;;;;8.40;nan;97132.63;5035537;28;20217;-71
2022/11/21 10:11:30;;;;;;;1.63;1.00;;;;;;;8.54;nan;97121.63;5035421;28;20348;-71
2022/11/21 10:14:12;;;;;;;4.23;1.10;;;;;;;8.54;nan;97120.81;5035368;28;20190;-71
2022/11/21 10:16:47;;;;;;;3.47;1.10;;;;;;;8.43;nan;97118.94;5035546;28;20194;-71
2022/11/21 10:19:25;;;;;;;4.50;1.57;;;;;;;8.48;nan;97117.25;5035347;28;20208;-71
2022/11/21 10:21:57;;;;;;;4.70;1.33;;;;;;;8.42;nan;97107.53;5034977;28;20249;-71
2022/11/21 10:24:47;;;;;;;3.40;1.13;;;;;;;8.24;nan;97104.19;5035256;28;20222;-71
2022/11/21 10:27:41;;;;;;;5.30;1.50;;;;;;;8.42;nan;97096.16;5035138;28;20201;-71
2022/11/21 10:30:15;;;;;;;2.87;1.00;;;;;;;8.44;nan;97086.94;5034978;28;20198;-71
2022/11/21 10:32:47;;;;;;;4.10;1.30;;;;;;;8.48;nan;97089.94;5049837;28;20192;-71
2022/11/21 10:35:14;;;;;;;6.27;1.20;;;;;;;8.73;nan;97083.38;5034960;28;20192;-71
2022/11/21 10:38:04;;;;;;;2.07;1.20;;;;;;;8.81;nan;97080.41;5034824;28;20205;-71
2022/11/21 10:40:48;;;;;;;4.47;1.10;;;;;;;9.17;nan;97074.81;5034851;28;20222;-71
2022/11/21 10:46:20;;;;;;;4.97;1.07;;;;;;;9.05;nan;97071.38;5034742;28;20779;-71
2022/11/21 10:48:56;;;;;;;4.33;1.30;;;;;;;9.20;nan;97062.94;5034466;28;20216;-71
2022/11/21 10:51:27;;;;;;;3.57;1.40;;;;;;;9.27;nan;97063.59;5034671;28;20229;-71
2022/11/21 10:57:06;;;;;;;5.17;1.33;;;;;;;9.41;nan;97059.66;5034085;28;20267;-71
2022/11/21 10:59:33;;;;;;;6.03;1.50;;;;;;;9.15;nan;97042.41;5034162;28;20643;-71
2022/11/21 11:02:22;;;;;;;3.87;1.50;;;;;;;9.29;nan;97035.84;5034473;28;20230;-71
2022/11/21 11:04:48;;;;;;;3.20;1.30;;;;;;;8.99;nan;97039.69;5034118;28;20684;-71
2022/11/21 11:07:32;;;;;;;4.43;1.20;;;;;;;8.95;nan;97033.22;5034999;28;20560;-71
2022/11/21 11:10:16;;;;;;;4.30;1.40;;;;;;;8.93;nan;97022.91;5034022;28;20208;-71
2022/11/21 11:15:27;;;;;;;4.00;1.13;;;;;;;9.05;nan;97010.41;5033820;28;20168;-71
2022/11/21 11:18:03;;;;;;;3.70;1.10;;;;;;;8.94;nan;97003.28;5033592;28;20209;-72
2022/11/21 11:20:35;;;;;;;4.50;1.10;;;;;;;9.11;nan;96995.41;5033693;28;20819;-71
2022/11/21 11:23:22;;;;;;;3.93;1.43;;;;;;;9.25;nan;96997.56;5033394;28;20224;-71
2022/11/21 11:25:59;;;;;;;3.20;1.03;;;;;;;9.24;nan;96995.13;5034019;28;20214;-71
2022/11/21 11:28:33;;;;;;;3.53;1.10;;;;;;;9.09;nan;96986.91;5033982;28;20335;-71
2022/11/21 11:31:00;;;;;;;3.30;1.00;;;;;;;9.20;nan;96991.34;5033591;28;20230;-71
2022/11/21 11:33:38;;;;;;;2.53;0.90;;;;;;;9.17;nan;96983.84;5033449;28;20735;-71
2022/11/21 11:36:16;;;;;;;3.93;1.03;;;;;;;9.16;nan;96966.34;5033467;28;20198;-71
2022/11/21 11:38:48;;;;;;;3.17;0.80;;;;;;;8.90;nan;96975.63;5033679;28;20189;-71
2022/11/21 11:47:49;;;;;;;4.10;1.07;;;;;;;9.21;nan;96959.28;5028056;28;20285;-71
2022/11/21 11:50:20;;;;;;;2.13;0.70;;;;;;;9.13;nan;96953.53;5045300;22;20205;-71
2022/11/21 11:53:01;;;;;;;3.37;1.13;;;;;;;9.08;nan;96945.50;4999001;28;20227;-70
2022/11/21 11:55:43;;;;;;;4.40;0.80;;;;;;;8.84;nan;96952.75;5001818;28;20198;-70
2022/11/21 11:58:28;;;;;;;3.27;0.97;;;;;;;8.74;nan;96943.78;5006883;28;20219;-71
2022/11/21 12:01:18;;;;;;;6.63;1.33;;;;;;;8.66;nan;96942.28;4993922;28;20242;-71
2022/11/21 12:04:03;;;;;;;3.57;1.10;;;;;;;8.73;nan;96944.81;4993930;28;20203;-71
2022/11/21 12:06:44;;;;;;;2.23;0.90;;;;;;;8.76;nan;96934.53;5006882;28;20214;-71
2022/11/21 12:09:32;;;;;;;2.77;1.00;;;;;;;8.81;nan;96931.19;5012881;28;20244;-71
2022/11/21 12:12:39;;;;;;;5.10;1.40;;;;;;;8.95;nan;96929.88;5011258;28;20222;-71
2022/11/21 12:18:20;;;;;;;2.10;1.00;;;;;;;8.95;nan;96917.44;5000590;28;20240;-71
2022/11/21 12:21:12;;;;;;;2.70;1.00;;;;;;;8.91;nan;96915.50;5012903;28;20277;-71
2022/11/21 12:23:47;;;;;;;2.73;0.93;;;;;;;8.74;nan;96911.97;5013791;28;20213;-71
2022/11/21 12:26:36;;;;;;;2.87;0.67;;;;;;;8.73;nan;96903.22;5013100;28;20214;-71
2022/11/21 12:29:03;;;;;;;1.23;0.70;;;;;;;8.73;nan;96899.78;5016301;28;20207;-71
2022/11/21 12:31:54;;;;;;;2.33;0.80;;;;;;;8.70;nan;96900.22;5017284;28;20230;-70
2022/11/21 12:34:58;;;;;;;4.87;1.13;;;;;;;8.56;nan;96894.38;5017841;28;20198;-71
2022/11/21 12:37:43;;;;;;;4.87;1.00;;;;;;;8.45;nan;96889.09;5017231;28;20212;-71
2022/11/21 12:40:34;;;;;;;3.83;1.00;;;;;;;8.42;nan;96890.38;5017156;28;20192;-71
2022/11/21 12:43:30;;;;;;;3.03;0.93;;;;;;;8.50;nan;96886.56;5016935;28;20211;-71